Airfield :
LOGIN :

Register | Disclaimer

   EN    FR    IT 

 










Legend :    VFR   Marginal VFR   IFR   Intensive IFR   Very Intensive IFR
Visi :
Ceiling :
>= 8 km
>= 3000ft
5 to 8 km
1000 to 3000 ft
1500m to 5 km
500 to 1000 ft
800 to 1500m
200 to 500 ft
< 800m
< 200 ft
Symbols :   Thunderstorms  Fog  Heavy snow  Heavy precipitations  Wind > 20 kt
SIGMETs :     Misc.  Thunderstorms  Icing  Turbulence  Mountain Waves  Volcanic Ashes






- Airport Elevation : 390 ft
- IATA code : NQY


EGHQ - Newquay

CURRENT METAR :
  • 280250Z AUTO 23013KT 9999 SCT020/// 10/07 Q1000 RERA

EXPIRED METARs :
  • 280220Z AUTO 22014KT 9999 BKN023/// 10/07 Q1000 RERA
  • 280150Z AUTO 22015KT 9999 BKN022/// 10/07 Q1000 RERA
  • 280120Z AUTO 23013KT 9999 SCT027/// 10/07 Q1000
  • 280050Z AUTO 22012KT 9999 FEW025/// 08/05 Q1001
  • 280020Z AUTO 22013KT 9999 NCD 09/06 Q1000
  • 272350Z AUTO 23015KT 9999 FEW021/// 09/06 Q1000 RERA

TAF COR TAF EGHQ
Valid from the 28 at 00:00 until the 28 at 09:00 UTC


272350Z 2800/2809 23015KT 9999 SCT025
TEMPO 2800/2809 7000 SHRA
PROB30
TEMPO 2800/2809 26018G28KT 4000 +SHRA



MET'MAP, your aeronautical weather chart ! - Copyright ORBIFLY December 2007 - Disclaimer

ORBIFLY MET'MAP TEAM :

Programming & Development : Alexandra Zaïnal
Concept & original design : Baudouin d'Aumeries
Assistance for programming : Marc-Olivier Méhu
Technical & hardware support : Manuel Goepfert

Contact : metmap@orbifly.com




SOURCES & CREDITS :

   NOAA